sensor_id;sensor_type;location;lat;lon;timestamp;P1;durP1;ratioP1;P2;durP2;ratioP2
79566;SDS011;69030;48.126;7.816;2023-11-22T00:02:24;17.15;;;9.48;;
79566;SDS011;69030;48.126;7.816;2023-11-22T00:04:54;16.40;;;10.02;;
79566;SDS011;69030;48.126;7.816;2023-11-22T00:07:20;15.18;;;9.52;;
79566;SDS011;69030;48.126;7.816;2023-11-22T00:09:46;19.20;;;9.52;;
79566;SDS011;69030;48.126;7.816;2023-11-22T00:12:12;19.27;;;9.38;;
79566;SDS011;69030;48.126;7.816;2023-11-22T00:14:38;16.00;;;8.57;;
79566;SDS011;69030;48.126;7.816;2023-11-22T00:17:06;17.45;;;8.27;;
79566;SDS011;69030;48.126;7.816;2023-11-22T00:19:32;20.02;;;9.95;;
79566;SDS011;69030;48.126;7.816;2023-11-22T00:22:00;22.95;;;10.45;;
79566;SDS011;69030;48.126;7.816;2023-11-22T00:24:28;19.60;;;10.20;;
79566;SDS011;69030;48.126;7.816;2023-11-22T00:26:53;17.50;;;9.75;;
79566;SDS011;69030;48.126;7.816;2023-11-22T00:29:18;21.05;;;10.50;;
79566;SDS011;69030;48.126;7.816;2023-11-22T00:31:44;16.35;;;10.68;;
79566;SDS011;69030;48.126;7.816;2023-11-22T00:34:09;18.50;;;10.52;;
79566;SDS011;69030;48.126;7.816;2023-11-22T00:36:35;13.30;;;7.35;;
79566;SDS011;69030;48.126;7.816;2023-11-22T00:39:00;18.38;;;11.30;;
79566;SDS011;69030;48.126;7.816;2023-11-22T00:41:29;20.90;;;10.90;;
79566;SDS011;69030;48.126;7.816;2023-11-22T00:43:55;24.73;;;11.95;;
79566;SDS011;69030;48.126;7.816;2023-11-22T00:46:21;22.25;;;11.00;;
79566;SDS011;69030;48.126;7.816;2023-11-22T00:48:46;19.10;;;10.50;;
79566;SDS011;69030;48.126;7.816;2023-11-22T00:51:12;20.00;;;11.30;;
79566;SDS011;69030;48.126;7.816;2023-11-22T00:53:38;18.98;;;10.98;;
79566;SDS011;69030;48.126;7.816;2023-11-22T00:56:04;18.00;;;9.40;;
79566;SDS011;69030;48.126;7.816;2023-11-22T00:58:31;19.67;;;10.93;;
79566;SDS011;69030;48.126;7.816;2023-11-22T01:00:57;16.63;;;10.90;;
79566;SDS011;69030;48.126;7.816;2023-11-22T01:03:23;20.65;;;10.57;;
79566;SDS011;69030;48.126;7.816;2023-11-22T01:05:48;19.73;;;10.55;;
79566;SDS011;69030;48.126;7.816;2023-11-22T01:08:13;21.52;;;10.48;;
79566;SDS011;69030;48.126;7.816;2023-11-22T01:10:39;16.85;;;9.57;;
79566;SDS011;69030;48.126;7.816;2023-11-22T01:13:04;19.73;;;11.05;;
79566;SDS011;69030;48.126;7.816;2023-11-22T01:15:30;19.52;;;10.20;;
79566;SDS011;69030;48.126;7.816;2023-11-22T01:17:55;17.05;;;9.73;;
79566;SDS011;69030;48.126;7.816;2023-11-22T01:20:21;20.73;;;10.85;;
79566;SDS011;69030;48.126;7.816;2023-11-22T01:22:48;22.63;;;12.77;;
79566;SDS011;69030;48.126;7.816;2023-11-22T01:25:13;22.08;;;10.65;;
79566;SDS011;69030;48.126;7.816;2023-11-22T01:27:39;20.45;;;11.75;;
79566;SDS011;69030;48.126;7.816;2023-11-22T01:30:05;18.05;;;9.38;;
79566;SDS011;69030;48.126;7.816;2023-11-22T01:32:32;20.38;;;10.35;;
79566;SDS011;69030;48.126;7.816;2023-11-22T01:34:59;25.30;;;11.93;;
79566;SDS011;69030;48.126;7.816;2023-11-22T01:37:25;20.23;;;10.60;;
79566;SDS011;69030;48.126;7.816;2023-11-22T01:39:52;17.27;;;9.60;;
79566;SDS011;69030;48.126;7.816;2023-11-22T01:42:19;20.13;;;9.45;;
79566;SDS011;69030;48.126;7.816;2023-11-22T01:44:46;18.90;;;9.27;;
79566;SDS011;69030;48.126;7.816;2023-11-22T01:47:13;16.88;;;9.75;;
79566;SDS011;69030;48.126;7.816;2023-11-22T01:49:39;19.10;;;9.93;;
79566;SDS011;69030;48.126;7.816;2023-11-22T01:52:05;12.95;;;7.28;;
79566;SDS011;69030;48.126;7.816;2023-11-22T01:54:30;18.05;;;8.38;;
79566;SDS011;69030;48.126;7.816;2023-11-22T01:56:56;17.50;;;8.00;;
79566;SDS011;69030;48.126;7.816;2023-11-22T01:59:22;13.45;;;8.00;;
79566;SDS011;69030;48.126;7.816;2023-11-22T02:01:48;12.35;;;6.65;;
79566;SDS011;69030;48.126;7.816;2023-11-22T02:04:14;7.60;;;5.25;;
79566;SDS011;69030;48.126;7.816;2023-11-22T02:06:40;7.45;;;4.78;;
79566;SDS011;69030;48.126;7.816;2023-11-22T02:09:06;8.73;;;4.93;;
79566;SDS011;69030;48.126;7.816;2023-11-22T02:11:31;7.32;;;4.50;;
79566;SDS011;69030;48.126;7.816;2023-11-22T02:13:57;9.40;;;5.68;;
79566;SDS011;69030;48.126;7.816;2023-11-22T02:16:23;9.82;;;5.65;;
79566;SDS011;69030;48.126;7.816;2023-11-22T02:18:48;16.00;;;6.22;;
79566;SDS011;69030;48.126;7.816;2023-11-22T02:21:16;11.07;;;5.43;;
79566;SDS011;69030;48.126;7.816;2023-11-22T02:23:42;11.20;;;5.90;;
79566;SDS011;69030;48.126;7.816;2023-11-22T02:26:08;14.35;;;8.05;;
79566;SDS011;69030;48.126;7.816;2023-11-22T02:28:33;10.25;;;4.97;;
79566;SDS011;69030;48.126;7.816;2023-11-22T02:30:59;13.15;;;7.18;;
79566;SDS011;69030;48.126;7.816;2023-11-22T02:33:24;11.38;;;6.05;;
79566;SDS011;69030;48.126;7.816;2023-11-22T02:35:50;6.60;;;4.78;;
79566;SDS011;69030;48.126;7.816;2023-11-22T02:38:15;12.13;;;6.25;;
79566;SDS011;69030;48.126;7.816;2023-11-22T02:40:43;10.60;;;6.72;;
79566;SDS011;69030;48.126;7.816;2023-11-22T02:43:08;10.63;;;5.28;;
79566;SDS011;69030;48.126;7.816;2023-11-22T02:45:34;6.70;;;4.07;;
79566;SDS011;69030;48.126;7.816;2023-11-22T02:47:59;8.57;;;5.03;;
79566;SDS011;69030;48.126;7.816;2023-11-22T02:50:28;9.63;;;6.47;;
79566;SDS011;69030;48.126;7.816;2023-11-22T02:52:53;8.02;;;5.03;;
79566;SDS011;69030;48.126;7.816;2023-11-22T02:55:19;8.48;;;3.78;;
79566;SDS011;69030;48.126;7.816;2023-11-22T02:57:44;6.70;;;3.90;;
79566;SDS011;69030;48.126;7.816;2023-11-22T03:00:11;10.18;;;4.90;;
79566;SDS011;69030;48.126;7.816;2023-11-22T03:02:40;5.80;;;3.83;;
79566;SDS011;69030;48.126;7.816;2023-11-22T03:05:07;10.70;;;5.57;;
79566;SDS011;69030;48.126;7.816;2023-11-22T03:07:34;9.05;;;4.07;;
79566;SDS011;69030;48.126;7.816;2023-11-22T03:10:00;7.78;;;3.28;;
79566;SDS011;69030;48.126;7.816;2023-11-22T03:12:26;8.07;;;4.00;;
79566;SDS011;69030;48.126;7.816;2023-11-22T03:14:52;7.53;;;4.80;;
79566;SDS011;69030;48.126;7.816;2023-11-22T03:17:23;8.15;;;5.35;;
79566;SDS011;69030;48.126;7.816;2023-11-22T03:19:49;6.43;;;4.13;;
79566;SDS011;69030;48.126;7.816;2023-11-22T03:22:14;6.80;;;4.35;;
79566;SDS011;69030;48.126;7.816;2023-11-22T03:24:40;6.47;;;3.75;;
79566;SDS011;69030;48.126;7.816;2023-11-22T03:27:05;5.35;;;3.78;;
79566;SDS011;69030;48.126;7.816;2023-11-22T03:29:31;7.47;;;4.13;;
79566;SDS011;69030;48.126;7.816;2023-11-22T03:31:57;6.75;;;3.72;;
79566;SDS011;69030;48.126;7.816;2023-11-22T03:34:23;5.65;;;4.15;;
79566;SDS011;69030;48.126;7.816;2023-11-22T03:36:48;6.32;;;2.65;;
79566;SDS011;69030;48.126;7.816;2023-11-22T03:39:15;4.57;;;2.78;;
79566;SDS011;69030;48.126;7.816;2023-11-22T03:41:41;7.10;;;4.55;;
79566;SDS011;69030;48.126;7.816;2023-11-22T03:44:07;6.85;;;4.20;;
79566;SDS011;69030;48.126;7.816;2023-11-22T03:46:36;5.80;;;3.85;;
79566;SDS011;69030;48.126;7.816;2023-11-22T03:49:02;7.95;;;4.13;;
79566;SDS011;69030;48.126;7.816;2023-11-22T03:51:28;12.20;;;5.25;;
79566;SDS011;69030;48.126;7.816;2023-11-22T03:53:54;8.55;;;4.55;;
79566;SDS011;69030;48.126;7.816;2023-11-22T03:56:19;6.57;;;3.80;;
79566;SDS011;69030;48.126;7.816;2023-11-22T03:58:46;8.43;;;5.03;;
79566;SDS011;69030;48.126;7.816;2023-11-22T04:01:12;7.00;;;3.90;;
79566;SDS011;69030;48.126;7.816;2023-11-22T04:03:37;6.53;;;4.65;;
79566;SDS011;69030;48.126;7.816;2023-11-22T04:06:03;10.60;;;5.13;;
79566;SDS011;69030;48.126;7.816;2023-11-22T04:08:28;7.10;;;4.07;;
79566;SDS011;69030;48.126;7.816;2023-11-22T04:10:54;7.53;;;4.22;;
79566;SDS011;69030;48.126;7.816;2023-11-22T04:13:19;6.35;;;3.83;;
79566;SDS011;69030;48.126;7.816;2023-11-22T04:15:45;8.02;;;4.85;;
79566;SDS011;69030;48.126;7.816;2023-11-22T04:18:11;8.48;;;5.15;;
79566;SDS011;69030;48.126;7.816;2023-11-22T04:20:36;8.75;;;6.35;;
79566;SDS011;69030;48.126;7.816;2023-11-22T04:23:02;6.57;;;3.78;;
79566;SDS011;69030;48.126;7.816;2023-11-22T04:25:28;6.60;;;4.28;;
79566;SDS011;69030;48.126;7.816;2023-11-22T04:27:54;7.88;;;5.75;;
79566;SDS011;69030;48.126;7.816;2023-11-22T04:30:19;7.35;;;4.93;;
79566;SDS011;69030;48.126;7.816;2023-11-22T04:32:45;8.48;;;4.97;;
79566;SDS011;69030;48.126;7.816;2023-11-22T04:35:11;4.78;;;3.30;;
79566;SDS011;69030;48.126;7.816;2023-11-22T04:37:38;7.35;;;4.03;;
79566;SDS011;69030;48.126;7.816;2023-11-22T04:40:04;6.45;;;3.97;;
79566;SDS011;69030;48.126;7.816;2023-11-22T04:42:34;4.47;;;3.50;;
79566;SDS011;69030;48.126;7.816;2023-11-22T04:45:01;6.32;;;3.08;;
79566;SDS011;69030;48.126;7.816;2023-11-22T04:47:26;4.45;;;2.80;;
79566;SDS011;69030;48.126;7.816;2023-11-22T04:49:52;4.60;;;3.78;;
79566;SDS011;69030;48.126;7.816;2023-11-22T04:52:17;4.32;;;2.13;;
79566;SDS011;69030;48.126;7.816;2023-11-22T04:54:43;3.47;;;2.10;;
79566;SDS011;69030;48.126;7.816;2023-11-22T04:57:09;3.58;;;1.67;;
79566;SDS011;69030;48.126;7.816;2023-11-22T04:59:35;4.35;;;2.03;;
79566;SDS011;69030;48.126;7.816;2023-11-22T05:02:00;3.97;;;2.60;;
79566;SDS011;69030;48.126;7.816;2023-11-22T05:04:26;3.85;;;1.38;;
79566;SDS011;69030;48.126;7.816;2023-11-22T05:06:52;3.80;;;2.05;;
79566;SDS011;69030;48.126;7.816;2023-11-22T05:09:18;3.22;;;2.42;;
79566;SDS011;69030;48.126;7.816;2023-11-22T05:11:45;3.97;;;1.88;;
79566;SDS011;69030;48.126;7.816;2023-11-22T05:14:12;3.97;;;2.35;;
79566;SDS011;69030;48.126;7.816;2023-11-22T05:16:38;3.15;;;1.90;;
79566;SDS011;69030;48.126;7.816;2023-11-22T05:19:04;3.72;;;1.45;;
79566;SDS011;69030;48.126;7.816;2023-11-22T05:21:30;3.78;;;1.80;;
79566;SDS011;69030;48.126;7.816;2023-11-22T05:23:57;2.10;;;1.48;;
79566;SDS011;69030;48.126;7.816;2023-11-22T05:26:23;2.63;;;1.50;;
79566;SDS011;69030;48.126;7.816;2023-11-22T05:28:48;2.90;;;1.40;;
79566;SDS011;69030;48.126;7.816;2023-11-22T05:31:14;2.03;;;1.17;;
79566;SDS011;69030;48.126;7.816;2023-11-22T05:33:39;2.28;;;1.83;;
79566;SDS011;69030;48.126;7.816;2023-11-22T05:36:05;3.38;;;1.55;;
79566;SDS011;69030;48.126;7.816;2023-11-22T05:38:32;2.30;;;0.63;;
79566;SDS011;69030;48.126;7.816;2023-11-22T05:41:00;2.63;;;0.93;;
79566;SDS011;69030;48.126;7.816;2023-11-22T05:43:26;2.35;;;1.48;;
79566;SDS011;69030;48.126;7.816;2023-11-22T05:45:55;1.38;;;0.75;;
79566;SDS011;69030;48.126;7.816;2023-11-22T05:48:21;2.78;;;1.85;;
79566;SDS011;69030;48.126;7.816;2023-11-22T05:50:47;2.08;;;1.00;;
79566;SDS011;69030;48.126;7.816;2023-11-22T05:53:13;3.58;;;2.35;;
79566;SDS011;69030;48.126;7.816;2023-11-22T05:55:44;3.42;;;2.10;;
79566;SDS011;69030;48.126;7.816;2023-11-22T05:58:16;1.95;;;0.90;;
79566;SDS011;69030;48.126;7.816;2023-11-22T06:00:42;2.63;;;1.90;;
79566;SDS011;69030;48.126;7.816;2023-11-22T06:03:12;1.63;;;0.73;;
79566;SDS011;69030;48.126;7.816;2023-11-22T06:05:38;2.25;;;1.45;;
79566;SDS011;69030;48.126;7.816;2023-11-22T06:08:06;2.30;;;1.75;;
79566;SDS011;69030;48.126;7.816;2023-11-22T06:10:34;2.83;;;1.52;;
79566;SDS011;69030;48.126;7.816;2023-11-22T06:12:59;3.40;;;1.65;;
79566;SDS011;69030;48.126;7.816;2023-11-22T06:15:25;3.05;;;1.27;;
79566;SDS011;69030;48.126;7.816;2023-11-22T06:17:50;2.53;;;1.42;;
79566;SDS011;69030;48.126;7.816;2023-11-22T06:20:16;2.97;;;1.20;;
79566;SDS011;69030;48.126;7.816;2023-11-22T06:22:41;4.05;;;1.58;;
79566;SDS011;69030;48.126;7.816;2023-11-22T06:25:13;3.38;;;1.83;;
79566;SDS011;69030;48.126;7.816;2023-11-22T06:27:39;3.45;;;2.17;;
79566;SDS011;69030;48.126;7.816;2023-11-22T06:30:05;2.80;;;1.48;;
79566;SDS011;69030;48.126;7.816;2023-11-22T06:32:31;4.28;;;2.15;;
79566;SDS011;69030;48.126;7.816;2023-11-22T06:34:57;4.13;;;1.48;;
79566;SDS011;69030;48.126;7.816;2023-11-22T06:37:23;2.60;;;1.58;;
79566;SDS011;69030;48.126;7.816;2023-11-22T06:39:48;2.53;;;1.98;;
79566;SDS011;69030;48.126;7.816;2023-11-22T06:42:15;3.42;;;1.75;;
79566;SDS011;69030;48.126;7.816;2023-11-22T06:44:42;3.53;;;2.70;;
79566;SDS011;69030;48.126;7.816;2023-11-22T06:47:07;2.92;;;2.20;;
79566;SDS011;69030;48.126;7.816;2023-11-22T06:49:33;6.95;;;2.88;;
79566;SDS011;69030;48.126;7.816;2023-11-22T06:51:59;8.43;;;2.47;;
79566;SDS011;69030;48.126;7.816;2023-11-22T06:54:25;8.80;;;4.57;;
79566;SDS011;69030;48.126;7.816;2023-11-22T06:56:50;6.43;;;4.13;;
79566;SDS011;69030;48.126;7.816;2023-11-22T06:59:16;7.40;;;5.18;;
79566;SDS011;69030;48.126;7.816;2023-11-22T07:01:42;8.52;;;5.32;;
79566;SDS011;69030;48.126;7.816;2023-11-22T07:04:08;5.90;;;3.90;;
79566;SDS011;69030;48.126;7.816;2023-11-22T07:06:33;11.40;;;7.70;;
79566;SDS011;69030;48.126;7.816;2023-11-22T07:08:59;6.53;;;4.05;;
79566;SDS011;69030;48.126;7.816;2023-11-22T07:11:24;13.85;;;5.82;;
79566;SDS011;69030;48.126;7.816;2023-11-22T07:13:51;6.00;;;3.72;;
79566;SDS011;69030;48.126;7.816;2023-11-22T07:16:17;7.60;;;3.97;;
79566;SDS011;69030;48.126;7.816;2023-11-22T07:18:43;4.72;;;2.53;;
79566;SDS011;69030;48.126;7.816;2023-11-22T07:21:10;4.35;;;1.60;;
79566;SDS011;69030;48.126;7.816;2023-11-22T07:23:36;3.50;;;1.92;;
79566;SDS011;69030;48.126;7.816;2023-11-22T07:26:03;4.80;;;2.17;;
79566;SDS011;69030;48.126;7.816;2023-11-22T07:28:28;4.60;;;1.83;;
79566;SDS011;69030;48.126;7.816;2023-11-22T07:30:54;4.43;;;2.63;;
79566;SDS011;69030;48.126;7.816;2023-11-22T07:33:19;4.68;;;2.55;;
79566;SDS011;69030;48.126;7.816;2023-11-22T07:35:46;5.68;;;2.80;;
79566;SDS011;69030;48.126;7.816;2023-11-22T07:38:11;6.75;;;3.42;;
79566;SDS011;69030;48.126;7.816;2023-11-22T07:40:37;4.10;;;3.28;;
79566;SDS011;69030;48.126;7.816;2023-11-22T07:43:02;3.40;;;2.00;;
79566;SDS011;69030;48.126;7.816;2023-11-22T07:45:30;5.53;;;2.05;;
79566;SDS011;69030;48.126;7.816;2023-11-22T07:47:56;4.78;;;2.55;;
79566;SDS011;69030;48.126;7.816;2023-11-22T07:50:24;5.70;;;2.83;;
79566;SDS011;69030;48.126;7.816;2023-11-22T07:52:50;5.28;;;2.95;;
79566;SDS011;69030;48.126;7.816;2023-11-22T07:55:16;7.80;;;3.28;;
79566;SDS011;69030;48.126;7.816;2023-11-22T07:57:43;6.03;;;2.97;;
79566;SDS011;69030;48.126;7.816;2023-11-22T08:00:10;7.20;;;3.47;;
79566;SDS011;69030;48.126;7.816;2023-11-22T08:02:36;7.43;;;4.47;;
79566;SDS011;69030;48.126;7.816;2023-11-22T08:05:04;4.43;;;2.17;;
79566;SDS011;69030;48.126;7.816;2023-11-22T08:07:33;4.20;;;2.67;;
79566;SDS011;69030;48.126;7.816;2023-11-22T08:10:37;7.15;;;3.33;;
79566;SDS011;69030;48.126;7.816;2023-11-22T08:13:02;8.40;;;3.88;;
79566;SDS011;69030;48.126;7.816;2023-11-22T08:15:28;6.47;;;3.83;;
79566;SDS011;69030;48.126;7.816;2023-11-22T08:17:56;3.58;;;2.13;;
79566;SDS011;69030;48.126;7.816;2023-11-22T08:20:22;5.78;;;3.35;;
79566;SDS011;69030;48.126;7.816;2023-11-22T08:25:37;6.72;;;3.90;;
79566;SDS011;69030;48.126;7.816;2023-11-22T08:28:03;5.25;;;3.33;;
79566;SDS011;69030;48.126;7.816;2023-11-22T08:30:29;6.07;;;2.75;;
79566;SDS011;69030;48.126;7.816;2023-11-22T08:35:23;6.15;;;3.20;;
79566;SDS011;69030;48.126;7.816;2023-11-22T08:37:49;5.15;;;2.88;;
79566;SDS011;69030;48.126;7.816;2023-11-22T08:40:15;7.28;;;3.40;;
79566;SDS011;69030;48.126;7.816;2023-11-22T08:42:45;2.67;;;1.83;;
79566;SDS011;69030;48.126;7.816;2023-11-22T08:45:13;5.55;;;2.65;;
79566;SDS011;69030;48.126;7.816;2023-11-22T08:47:39;5.82;;;2.80;;
79566;SDS011;69030;48.126;7.816;2023-11-22T08:50:06;4.82;;;3.20;;
79566;SDS011;69030;48.126;7.816;2023-11-22T08:52:33;5.95;;;2.85;;
79566;SDS011;69030;48.126;7.816;2023-11-22T08:54:59;3.80;;;1.90;;
79566;SDS011;69030;48.126;7.816;2023-11-22T08:57:25;5.72;;;3.15;;
79566;SDS011;69030;48.126;7.816;2023-11-22T08:59:51;4.45;;;3.22;;
79566;SDS011;69030;48.126;7.816;2023-11-22T09:02:19;4.25;;;2.40;;
79566;SDS011;69030;48.126;7.816;2023-11-22T09:04:47;3.58;;;2.05;;
79566;SDS011;69030;48.126;7.816;2023-11-22T09:07:13;7.53;;;2.97;;
79566;SDS011;69030;48.126;7.816;2023-11-22T09:09:40;2.35;;;1.77;;
79566;SDS011;69030;48.126;7.816;2023-11-22T09:12:07;5.20;;;2.83;;
79566;SDS011;69030;48.126;7.816;2023-11-22T09:14:38;6.95;;;3.80;;
79566;SDS011;69030;48.126;7.816;2023-11-22T09:17:07;5.43;;;3.40;;
79566;SDS011;69030;48.126;7.816;2023-11-22T09:24:26;3.63;;;2.42;;
79566;SDS011;69030;48.126;7.816;2023-11-22T09:26:52;5.28;;;2.97;;
79566;SDS011;69030;48.126;7.816;2023-11-22T09:29:17;2.75;;;1.73;;
79566;SDS011;69030;48.126;7.816;2023-11-22T09:31:43;3.50;;;1.95;;
79566;SDS011;69030;48.126;7.816;2023-11-22T09:34:11;5.38;;;3.40;;
79566;SDS011;69030;48.126;7.816;2023-11-22T09:36:38;3.92;;;2.47;;
79566;SDS011;69030;48.126;7.816;2023-11-22T09:39:04;4.25;;;2.65;;
79566;SDS011;69030;48.126;7.816;2023-11-22T09:41:33;5.95;;;2.80;;
79566;SDS011;69030;48.126;7.816;2023-11-22T09:44:01;4.45;;;3.38;;
79566;SDS011;69030;48.126;7.816;2023-11-22T09:46:28;6.68;;;3.40;;
79566;SDS011;69030;48.126;7.816;2023-11-22T09:48:56;4.82;;;3.22;;
79566;SDS011;69030;48.126;7.816;2023-11-22T09:51:26;5.72;;;3.13;;
79566;SDS011;69030;48.126;7.816;2023-11-22T09:53:58;6.43;;;4.15;;
79566;SDS011;69030;48.126;7.816;2023-11-22T09:56:26;9.75;;;5.20;;
79566;SDS011;69030;48.126;7.816;2023-11-22T09:58:53;13.93;;;7.82;;
79566;SDS011;69030;48.126;7.816;2023-11-22T10:01:21;8.23;;;4.13;;
79566;SDS011;69030;48.126;7.816;2023-11-22T10:03:53;6.10;;;3.90;;
79566;SDS011;69030;48.126;7.816;2023-11-22T10:06:19;10.57;;;5.78;;
79566;SDS011;69030;48.126;7.816;2023-11-22T10:08:45;7.35;;;4.65;;
79566;SDS011;69030;48.126;7.816;2023-11-22T10:11:15;7.68;;;4.30;;
79566;SDS011;69030;48.126;7.816;2023-11-22T10:13:49;6.15;;;3.65;;
79566;SDS011;69030;48.126;7.816;2023-11-22T10:16:16;7.30;;;4.50;;
79566;SDS011;69030;48.126;7.816;2023-11-22T10:18:43;4.40;;;3.05;;
79566;SDS011;69030;48.126;7.816;2023-11-22T10:23:46;3.78;;;2.47;;
79566;SDS011;69030;48.126;7.816;2023-11-22T10:26:12;4.05;;;2.53;;
79566;SDS011;69030;48.126;7.816;2023-11-22T10:28:41;8.27;;;3.45;;
79566;SDS011;69030;48.126;7.816;2023-11-22T10:31:07;3.53;;;1.70;;
79566;SDS011;69030;48.126;7.816;2023-11-22T10:33:33;4.75;;;1.98;;
79566;SDS011;69030;48.126;7.816;2023-11-22T10:35:58;3.78;;;1.80;;
79566;SDS011;69030;48.126;7.816;2023-11-22T10:38:23;4.88;;;3.08;;
79566;SDS011;69030;48.126;7.816;2023-11-22T10:40:49;5.93;;;3.80;;
79566;SDS011;69030;48.126;7.816;2023-11-22T10:43:17;2.83;;;2.42;;
79566;SDS011;69030;48.126;7.816;2023-11-22T10:45:43;6.57;;;2.63;;
79566;SDS011;69030;48.126;7.816;2023-11-22T10:48:16;4.13;;;3.50;;
79566;SDS011;69030;48.126;7.816;2023-11-22T10:50:42;8.48;;;4.45;;
79566;SDS011;69030;48.126;7.816;2023-11-22T10:53:13;7.88;;;5.22;;
79566;SDS011;69030;48.126;7.816;2023-11-22T10:55:45;5.32;;;3.75;;
79566;SDS011;69030;48.126;7.816;2023-11-22T10:58:14;3.47;;;1.95;;
79566;SDS011;69030;48.126;7.816;2023-11-22T11:00:41;3.40;;;3.10;;
79566;SDS011;69030;48.126;7.816;2023-11-22T11:05:38;2.35;;;2.00;;
79566;SDS011;69030;48.126;7.816;2023-11-22T11:08:13;3.90;;;2.47;;
79566;SDS011;69030;48.126;7.816;2023-11-22T11:10:41;4.07;;;1.85;;
79566;SDS011;69030;48.126;7.816;2023-11-22T11:13:07;7.82;;;2.33;;
79566;SDS011;69030;48.126;7.816;2023-11-22T11:15:38;2.53;;;1.23;;
79566;SDS011;69030;48.126;7.816;2023-11-22T11:18:05;2.58;;;1.77;;
79566;SDS011;69030;48.126;7.816;2023-11-22T11:21:14;4.15;;;1.77;;
79566;SDS011;69030;48.126;7.816;2023-11-22T11:23:22;3.08;;;1.73;;
79566;SDS011;69030;48.126;7.816;2023-11-22T11:25:50;2.80;;;1.63;;
79566;SDS011;69030;48.126;7.816;2023-11-22T11:28:16;4.10;;;1.92;;
79566;SDS011;69030;48.126;7.816;2023-11-22T11:30:48;2.80;;;0.98;;
79566;SDS011;69030;48.126;7.816;2023-11-22T11:33:15;3.35;;;1.42;;
79566;SDS011;69030;48.126;7.816;2023-11-22T11:35:47;3.60;;;1.48;;
79566;SDS011;69030;48.126;7.816;2023-11-22T11:38:13;4.85;;;2.03;;
79566;SDS011;69030;48.126;7.816;2023-11-22T11:40:40;2.75;;;1.42;;
79566;SDS011;69030;48.126;7.816;2023-11-22T11:43:07;2.75;;;1.33;;
79566;SDS011;69030;48.126;7.816;2023-11-22T11:45:37;3.15;;;1.33;;
79566;SDS011;69030;48.126;7.816;2023-11-22T11:48:04;3.17;;;1.92;;
79566;SDS011;69030;48.126;7.816;2023-11-22T11:50:33;3.53;;;1.35;;
79566;SDS011;69030;48.126;7.816;2023-11-22T11:52:59;3.45;;;1.98;;
79566;SDS011;69030;48.126;7.816;2023-11-22T11:55:26;3.22;;;1.63;;
79566;SDS011;69030;48.126;7.816;2023-11-22T11:57:55;3.47;;;1.90;;
79566;SDS011;69030;48.126;7.816;2023-11-22T12:00:21;2.75;;;1.48;;
79566;SDS011;69030;48.126;7.816;2023-11-22T12:02:49;3.72;;;2.30;;
79566;SDS011;69030;48.126;7.816;2023-11-22T12:05:15;2.97;;;1.92;;
79566;SDS011;69030;48.126;7.816;2023-11-22T12:07:41;2.67;;;1.77;;
79566;SDS011;69030;48.126;7.816;2023-11-22T12:10:06;4.57;;;3.42;;
79566;SDS011;69030;48.126;7.816;2023-11-22T12:12:34;3.08;;;1.83;;
79566;SDS011;69030;48.126;7.816;2023-11-22T12:14:59;2.75;;;1.73;;
79566;SDS011;69030;48.126;7.816;2023-11-22T12:17:25;2.15;;;1.42;;
79566;SDS011;69030;48.126;7.816;2023-11-22T12:19:52;2.97;;;1.55;;
79566;SDS011;69030;48.126;7.816;2023-11-22T12:22:18;2.30;;;2.10;;
79566;SDS011;69030;48.126;7.816;2023-11-22T12:24:45;4.97;;;1.92;;
79566;SDS011;69030;48.126;7.816;2023-11-22T12:27:10;6.00;;;2.00;;
79566;SDS011;69030;48.126;7.816;2023-11-22T12:29:36;2.95;;;1.92;;
79566;SDS011;69030;48.126;7.816;2023-11-22T12:32:02;3.97;;;1.88;;
79566;SDS011;69030;48.126;7.816;2023-11-22T12:34:28;5.35;;;2.15;;
79566;SDS011;69030;48.126;7.816;2023-11-22T12:36:55;2.30;;;1.23;;
79566;SDS011;69030;48.126;7.816;2023-11-22T12:39:21;2.65;;;1.23;;
79566;SDS011;69030;48.126;7.816;2023-11-22T12:41:48;2.38;;;1.52;;
79566;SDS011;69030;48.126;7.816;2023-11-22T12:44:16;3.85;;;1.95;;
79566;SDS011;69030;48.126;7.816;2023-11-22T12:49:20;2.08;;;1.13;;
79566;SDS011;69030;48.126;7.816;2023-11-22T12:51:47;2.30;;;1.50;;
79566;SDS011;69030;48.126;7.816;2023-11-22T12:54:17;5.95;;;2.45;;
79566;SDS011;69030;48.126;7.816;2023-11-22T12:56:49;2.28;;;1.58;;
79566;SDS011;69030;48.126;7.816;2023-11-22T12:59:15;4.57;;;2.00;;
79566;SDS011;69030;48.126;7.816;2023-11-22T13:01:41;4.57;;;2.15;;
79566;SDS011;69030;48.126;7.816;2023-11-22T13:04:11;4.78;;;2.40;;
79566;SDS011;69030;48.126;7.816;2023-11-22T13:06:39;4.07;;;2.08;;
79566;SDS011;69030;48.126;7.816;2023-11-22T13:09:05;2.53;;;2.15;;
79566;SDS011;69030;48.126;7.816;2023-11-22T13:11:31;5.35;;;2.22;;
79566;SDS011;69030;48.126;7.816;2023-11-22T13:13:57;7.95;;;3.83;;
79566;SDS011;69030;48.126;7.816;2023-11-22T13:16:24;7.85;;;3.13;;
79566;SDS011;69030;48.126;7.816;2023-11-22T13:18:49;3.83;;;1.88;;
79566;SDS011;69030;48.126;7.816;2023-11-22T13:21:15;1.65;;;0.98;;
79566;SDS011;69030;48.126;7.816;2023-11-22T13:23:43;3.55;;;1.30;;
79566;SDS011;69030;48.126;7.816;2023-11-22T13:26:09;1.88;;;0.90;;
79566;SDS011;69030;48.126;7.816;2023-11-22T13:28:38;6.53;;;2.92;;
79566;SDS011;69030;48.126;7.816;2023-11-22T13:31:03;9.07;;;3.45;;
79566;SDS011;69030;48.126;7.816;2023-11-22T13:33:29;3.03;;;1.48;;
79566;SDS011;69030;48.126;7.816;2023-11-22T13:35:54;4.13;;;2.42;;
79566;SDS011;69030;48.126;7.816;2023-11-22T13:38:20;4.35;;;2.63;;
79566;SDS011;69030;48.126;7.816;2023-11-22T13:40:45;4.75;;;1.55;;
79566;SDS011;69030;48.126;7.816;2023-11-22T13:43:11;16.70;;;5.20;;
79566;SDS011;69030;48.126;7.816;2023-11-22T13:45:42;3.97;;;1.95;;
79566;SDS011;69030;48.126;7.816;2023-11-22T13:48:08;7.68;;;3.05;;
79566;SDS011;69030;48.126;7.816;2023-11-22T13:50:35;12.38;;;6.28;;
79566;SDS011;69030;48.126;7.816;2023-11-22T13:53:01;2.50;;;1.67;;
79566;SDS011;69030;48.126;7.816;2023-11-22T13:55:28;3.50;;;2.00;;
79566;SDS011;69030;48.126;7.816;2023-11-22T13:57:58;7.55;;;3.85;;
79566;SDS011;69030;48.126;7.816;2023-11-22T14:00:29;4.78;;;2.70;;
79566;SDS011;69030;48.126;7.816;2023-11-22T14:03:02;7.93;;;4.07;;
79566;SDS011;69030;48.126;7.816;2023-11-22T14:05:31;6.57;;;2.47;;
79566;SDS011;69030;48.126;7.816;2023-11-22T14:07:58;2.65;;;1.85;;
79566;SDS011;69030;48.126;7.816;2023-11-22T14:10:24;4.07;;;1.63;;
79566;SDS011;69030;48.126;7.816;2023-11-22T14:12:50;3.63;;;2.70;;
79566;SDS011;69030;48.126;7.816;2023-11-22T14:15:16;4.80;;;1.70;;
79566;SDS011;69030;48.126;7.816;2023-11-22T14:17:41;2.55;;;1.80;;
79566;SDS011;69030;48.126;7.816;2023-11-22T14:20:13;4.30;;;2.67;;
79566;SDS011;69030;48.126;7.816;2023-11-22T14:22:39;3.92;;;2.00;;
79566;SDS011;69030;48.126;7.816;2023-11-22T14:25:06;5.57;;;3.35;;
79566;SDS011;69030;48.126;7.816;2023-11-22T14:27:41;5.82;;;3.28;;
79566;SDS011;69030;48.126;7.816;2023-11-22T14:30:09;6.38;;;3.28;;
79566;SDS011;69030;48.126;7.816;2023-11-22T14:32:37;3.78;;;2.38;;
79566;SDS011;69030;48.126;7.816;2023-11-22T14:35:03;3.33;;;1.95;;
79566;SDS011;69030;48.126;7.816;2023-11-22T14:37:28;2.53;;;1.77;;
79566;SDS011;69030;48.126;7.816;2023-11-22T14:39:55;2.05;;;0.98;;
79566;SDS011;69030;48.126;7.816;2023-11-22T14:42:22;5.00;;;2.72;;
79566;SDS011;69030;48.126;7.816;2023-11-22T14:44:50;2.05;;;1.52;;
79566;SDS011;69030;48.126;7.816;2023-11-22T14:47:16;3.20;;;2.17;;
79566;SDS011;69030;48.126;7.816;2023-11-22T14:49:47;3.97;;;1.65;;
79566;SDS011;69030;48.126;7.816;2023-11-22T14:52:13;6.63;;;3.17;;
79566;SDS011;69030;48.126;7.816;2023-11-22T14:58:03;2.95;;;1.77;;
79566;SDS011;69030;48.126;7.816;2023-11-22T15:00:30;3.22;;;1.55;;
79566;SDS011;69030;48.126;7.816;2023-11-22T15:02:55;4.70;;;2.55;;